Time;durP1;ratioP1;P1;durP2;ratioP2;P2;SDS_P1;SDS_P2;PMS_P1;PMS_P2;Temp;Humidity;BMP_temperature;BMP_pressure;BME280_temperature;BME280_humidity;BME280_pressure;Samples;Min_cycle;Max_cycle;Signal;HPM_P1;HPM_P2
2022/09/27 00:00:51;;;;;;;2.15;1.67;;;21.80;63.00;;;;;;4977999;28;89139;-83
2022/09/27 00:03:17;;;;;;;3.85;1.50;;;21.80;62.80;;;;;;4979626;28;88257;-83
2022/09/27 00:05:42;;;;;;;2.97;1.63;;;21.80;62.90;;;;;;4981031;28;87473;-82
2022/09/27 00:08:08;;;;;;;3.20;1.60;;;21.80;62.90;;;;;;4978728;28;95553;-83
2022/09/27 00:10:33;;;;;;;3.13;2.05;;;21.80;62.90;;;;;;4979848;28;87825;-83
2022/09/27 00:12:59;;;;;;;4.15;2.00;;;21.80;62.90;;;;;;4977698;28;88361;-82
2022/09/27 00:15:25;;;;;;;3.40;1.52;;;21.80;62.70;;;;;;4969422;28;87723;-83
2022/09/27 00:17:51;;;;;;;2.92;1.90;;;21.80;62.90;;;;;;4969708;28;87461;-83
2022/09/27 00:20:19;;;;;;;3.30;1.77;;;21.70;62.70;;;;;;4971038;28;88681;-83
2022/09/27 00:22:45;;;;;;;3.42;2.00;;;21.70;62.60;;;;;;4969565;28;88090;-83
2022/09/27 00:25:11;;;;;;;3.40;1.95;;;21.80;62.80;;;;;;4967143;28;88229;-83
2022/09/27 00:27:36;;;;;;;2.97;1.80;;;21.80;62.70;;;;;;4967024;28;88102;-83
2022/09/27 00:30:02;;;;;;;3.13;1.77;;;21.70;62.60;;;;;;4968627;28;88068;-82
2022/09/27 00:32:27;;;;;;;2.70;1.60;;;21.70;62.60;;;;;;4951483;28;91627;-83
2022/09/27 00:34:53;;;;;;;2.33;1.50;;;21.70;62.60;;;;;;4969746;28;87427;-83
2022/09/27 00:37:20;;;;;;;3.55;1.70;;;21.70;62.50;;;;;;4970675;28;87422;-82
2022/09/27 00:39:45;;;;;;;2.92;1.70;;;21.70;62.60;;;;;;4970306;28;88056;-83
2022/09/27 00:42:11;;;;;;;2.90;1.70;;;21.70;62.60;;;;;;4969130;28;88931;-83
2022/09/27 00:44:37;;;;;;;2.72;1.60;;;21.70;62.50;;;;;;4969358;28;87325;-83
2022/09/27 00:47:21;;;;;;;2.55;1.42;;;21.70;62.50;;;;;;4968376;28;90373;-82
2022/09/27 00:49:46;;;;;;;3.45;1.80;;;21.70;62.20;;;;;;4967472;28;88367;-83
2022/09/27 00:52:30;;;;;;;2.50;1.50;;;21.70;62.20;;;;;;4967769;28;89296;-83
2022/09/27 00:55:21;;;;;;;3.33;1.80;;;21.70;62.40;;;;;;4966477;28;86894;-83
2022/09/27 00:57:48;;;;;;;3.65;1.65;;;21.70;62.30;;;;;;4950753;28;90779;-82
2022/09/27 01:00:14;;;;;;;2.38;1.60;;;21.70;62.20;;;;;;4970639;28;88227;-83
2022/09/27 01:02:47;;;;;;;3.97;1.73;;;21.70;62.20;;;;;;4968928;28;88351;-83
2022/09/27 01:05:16;;;;;;;3.05;1.52;;;21.70;62.10;;;;;;4968203;28;87485;-83
2022/09/27 01:07:42;;;;;;;2.55;1.50;;;21.70;62.20;;;;;;4945737;28;88191;-83
2022/09/27 01:10:08;;;;;;;2.75;1.40;;;21.70;62.10;;;;;;4956089;28;88081;-83
2022/09/27 01:12:43;;;;;;;1.95;1.38;;;21.60;62.10;;;;;;4969862;28;88235;-83
2022/09/27 01:15:12;;;;;;;2.25;1.60;;;21.60;62.10;;;;;;4976883;28;88479;-83
2022/09/27 01:17:46;;;;;;;2.73;1.83;;;21.60;61.80;;;;;;4967429;28;89719;-83
2022/09/27 01:20:31;;;;;;;2.30;1.50;;;21.60;62.00;;;;;;4951430;28;95602;-83
2022/09/27 01:23:06;;;;;;;5.53;1.90;;;21.60;61.90;;;;;;4977507;28;88267;-83
2022/09/27 01:25:51;;;;;;;3.08;1.50;;;21.60;62.00;;;;;;4977905;28;86994;-82
2022/09/27 01:28:38;;;;;;;2.10;1.35;;;21.60;61.80;;;;;;4959343;28;91579;-83
2022/09/27 01:31:28;;;;;;;2.38;1.42;;;21.60;61.80;;;;;;4978269;28;87589;-83
2022/09/27 01:34:12;;;;;;;2.30;1.30;;;21.60;61.90;;;;;;4978734;28;88323;-83
2022/09/27 01:37:12;;;;;;;2.47;1.67;;;21.60;61.80;;;;;;4978109;28;87472;-82
2022/09/27 01:40:08;;;;;;;3.03;1.55;;;21.60;62.40;;;;;;4978656;28;87628;-83
2022/09/27 01:42:40;;;;;;;3.97;1.60;;;21.60;61.70;;;;;;4977913;28;89820;-83
2022/09/27 01:45:11;;;;;;;2.25;1.40;;;21.60;61.50;;;;;;4958533;28;92589;-83
2022/09/27 01:47:42;;;;;;;2.28;1.38;;;21.60;61.50;;;;;;4979799;28;87207;-83
2022/09/27 01:50:17;;;;;;;4.75;1.75;;;21.60;61.50;;;;;;4977741;28;91581;-83
2022/09/27 01:52:49;;;;;;;1.52;1.23;;;21.60;61.50;;;;;;4977930;28;92067;-83
2022/09/27 01:55:18;;;;;;;2.03;1.30;;;21.50;61.30;;;;;;4978708;28;87355;-83
2022/09/27 01:57:50;;;;;;;1.48;1.20;;;21.50;61.70;;;;;;4977873;28;87425;-83
2022/09/27 02:00:16;;;;;;;2.88;1.30;;;21.60;61.80;;;;;;4960037;28;90747;-82
2022/09/27 02:03:08;;;;;;;2.20;1.30;;;21.50;61.60;;;;;;4978564;28;87672;-83
2022/09/27 02:05:54;;;;;;;2.20;1.45;;;21.50;61.70;;;;;;4966570;28;93407;-83
2022/09/27 02:08:44;;;;;;;2.17;1.35;;;21.50;61.60;;;;;;4958587;28;87852;-82
2022/09/27 02:11:12;;;;;;;1.88;1.33;;;21.50;61.60;;;;;;4978417;28;90634;-83
2022/09/27 02:14:26;;;;;;;2.30;1.38;;;21.50;61.50;;;;;;4974865;28;88023;-83
2022/09/27 02:17:29;;;;;;;2.10;1.23;;;21.50;61.40;;;;;;4916204;28;87708;-83
2022/09/27 02:20:06;;;;;;;1.90;1.10;;;21.50;61.30;;;;;;4917876;28;87723;-84
2022/09/27 02:22:37;;;;;;;2.22;1.17;;;21.50;61.40;;;;;;4916872;28;87113;-83
2022/09/27 02:25:33;;;;;;;1.95;1.25;;;21.50;61.40;;;;;;4917610;28;89273;-83
2022/09/27 02:28:26;;;;;;;1.52;1.00;;;21.50;61.30;;;;;;4916596;28;92103;-83
2022/09/27 02:30:51;;;;;;;2.58;1.15;;;21.50;61.40;;;;;;4916709;28;87040;-83
2022/09/27 02:33:21;;;;;;;1.83;1.10;;;21.50;61.40;;;;;;4915906;28;89673;-83
2022/09/27 02:35:47;;;;;;;1.83;1.30;;;21.50;61.50;;;;;;4916369;28;88609;-84
2022/09/27 02:38:12;;;;;;;1.38;1.20;;;21.50;61.40;;;;;;4902276;28;92492;-83
2022/09/27 02:40:44;;;;;;;2.78;1.30;;;21.50;61.40;;;;;;4920597;28;87260;-83
2022/09/27 02:43:12;;;;;;;2.53;1.48;;;21.50;61.30;;;;;;4920139;28;87575;-83
2022/09/27 02:46:00;;;;;;;2.17;1.25;;;21.50;61.30;;;;;;4919220;28;88269;-84
2022/09/27 02:48:26;;;;;;;2.08;1.40;;;21.50;61.30;;;;;;4920229;28;88824;-83
2022/09/27 02:50:59;;;;;;;1.55;0.95;;;21.40;61.30;;;;;;4919581;28;87231;-83
2022/09/27 02:53:46;;;;;;;1.70;1.30;;;21.50;61.30;;;;;;4947198;28;86533;-83
2022/09/27 02:56:47;;;;;;;2.50;1.30;;;21.50;61.20;;;;;;4951222;28;92928;-83
2022/09/27 02:59:40;;;;;;;2.83;1.45;;;21.50;61.20;;;;;;4936576;28;92506;-83
2022/09/27 03:02:12;;;;;;;3.20;1.20;;;21.50;61.20;;;;;;4933477;28;88484;-83
2022/09/27 03:05:03;;;;;;;3.40;1.83;;;21.50;61.10;;;;;;4936310;28;94813;-83
2022/09/27 03:07:30;;;;;;;1.67;1.05;;;21.50;60.90;;;;;;4953590;28;87799;-83
2022/09/27 03:09:55;;;;;;;2.58;1.20;;;21.50;60.90;;;;;;4952026;28;88758;-84
2022/09/27 03:12:24;;;;;;;1.55;1.20;;;21.50;61.10;;;;;;4954814;28;87254;-83
2022/09/27 03:14:52;;;;;;;1.35;0.98;;;21.50;61.00;;;;;;4970037;28;87409;-83
2022/09/27 03:17:18;;;;;;;1.75;1.13;;;21.50;60.80;;;;;;4974604;28;88752;-83
2022/09/27 03:19:44;;;;;;;2.03;1.30;;;21.50;60.90;;;;;;4973390;28;86956;-83
2022/09/27 03:22:09;;;;;;;2.03;1.30;;;21.50;60.90;;;;;;4973024;28;87901;-83
2022/09/27 03:24:35;;;;;;;2.13;1.10;;;21.50;60.70;;;;;;4976665;28;87686;-83
2022/09/27 03:27:01;;;;;;;1.52;1.13;;;21.50;60.60;;;;;;4968368;28;92603;-84
2022/09/27 03:29:26;;;;;;;1.48;0.90;;;21.50;60.70;;;;;;4975686;28;89172;-83
2022/09/27 03:31:52;;;;;;;2.03;1.13;;;21.50;60.70;;;;;;4973871;28;86955;-82
2022/09/27 03:34:17;;;;;;;1.80;1.30;;;21.50;60.80;;;;;;4967657;28;89946;-83
2022/09/27 03:36:44;;;;;;;1.38;1.08;;;21.50;60.70;;;;;;4967684;28;88518;-83
2022/09/27 03:39:09;;;;;;;1.35;0.95;;;21.50;60.80;;;;;;4976224;28;88325;-83
2022/09/27 03:41:35;;;;;;;1.23;0.90;;;21.50;60.80;;;;;;4980422;28;87118;-83
2022/09/27 03:44:00;;;;;;;1.45;1.10;;;21.50;60.60;;;;;;4981708;28;87105;-83
2022/09/27 03:46:26;;;;;;;2.35;1.23;;;21.50;60.60;;;;;;4980053;28;88461;-83
2022/09/27 03:48:52;;;;;;;1.98;1.30;;;21.50;60.50;;;;;;4979931;28;88259;-83
2022/09/27 03:51:17;;;;;;;1.08;0.93;;;21.50;60.60;;;;;;4979892;28;88429;-83
2022/09/27 03:53:43;;;;;;;1.00;0.90;;;21.50;60.70;;;;;;4980440;28;86972;-83
2022/09/27 03:56:09;;;;;;;2.47;1.25;;;21.50;60.40;;;;;;4974006;28;91451;-83
2022/09/27 03:58:37;;;;;;;2.20;1.17;;;21.50;60.60;;;;;;4978907;28;90866;-83
2022/09/27 04:01:02;;;;;;;1.30;1.00;;;21.50;60.50;;;;;;4979607;28;87444;-83
2022/09/27 04:03:28;;;;;;;2.22;1.10;;;21.50;60.40;;;;;;4980008;28;87194;-83
2022/09/27 04:05:53;;;;;;;1.55;1.15;;;21.40;60.50;;;;;;4980581;28;88187;-83
2022/09/27 04:08:21;;;;;;;0.98;0.88;;;21.50;60.50;;;;;;4980867;28;87472;-83
2022/09/27 04:10:46;;;;;;;1.00;0.80;;;21.40;60.30;;;;;;4978282;28;87379;-83
2022/09/27 04:13:12;;;;;;;1.63;1.00;;;21.50;60.50;;;;;;4979270;28;87129;-83
2022/09/27 04:15:38;;;;;;;2.33;1.08;;;21.50;60.60;;;;;;4979683;28;89450;-83
2022/09/27 04:18:04;;;;;;;1.42;1.08;;;21.40;60.40;;;;;;4980108;28;87587;-83
2022/09/27 04:20:30;;;;;;;2.28;0.93;;;21.40;60.50;;;;;;4981268;28;87084;-83
2022/09/27 04:22:56;;;;;;;1.25;0.93;;;21.40;60.40;;;;;;4980221;28;87356;-83
2022/09/27 04:25:21;;;;;;;1.92;0.90;;;21.40;60.30;;;;;;4979508;28;90092;-83
2022/09/27 04:27:47;;;;;;;1.70;0.90;;;21.40;60.30;;;;;;4979874;28;87632;-83
2022/09/27 04:30:14;;;;;;;1.67;0.88;;;21.40;60.40;;;;;;4979707;28;87016;-83
2022/09/27 04:32:41;;;;;;;1.30;0.85;;;21.40;60.30;;;;;;4978599;28;89348;-83
2022/09/27 04:37:52;;;;;;;2.67;1.10;;;21.40;60.40;;;;;;4979339;28;87339;-83
2022/09/27 04:40:19;;;;;;;1.90;0.90;;;21.40;60.40;;;;;;4979030;28;87870;-83
2022/09/27 04:42:44;;;;;;;3.50;1.30;;;21.40;60.30;;;;;;4980512;28;87428;-83
2022/09/27 04:45:12;;;;;;;1.70;1.05;;;21.40;60.40;;;;;;4979623;28;88427;-83
2022/09/27 04:47:42;;;;;;;0.95;0.70;;;21.40;60.40;;;;;;4979382;28;88542;-83
2022/09/27 04:50:08;;;;;;;2.60;1.08;;;21.40;60.30;;;;;;4959751;28;86937;-83
2022/09/27 04:52:34;;;;;;;1.40;1.05;;;21.40;60.40;;;;;;4975030;28;87100;-83
2022/09/27 04:55:00;;;;;;;1.55;0.90;;;21.40;60.20;;;;;;4977069;28;91339;-83
2022/09/27 04:57:25;;;;;;;1.52;1.00;;;21.40;60.30;;;;;;4979520;28;86892;-83
2022/09/27 04:59:51;;;;;;;1.27;0.80;;;21.40;60.20;;;;;;4978156;28;87584;-83
2022/09/27 05:02:17;;;;;;;2.45;0.90;;;21.40;60.20;;;;;;4980080;28;87352;-83
2022/09/27 05:04:43;;;;;;;1.35;0.80;;;21.40;60.10;;;;;;4971541;28;89625;-83
2022/09/27 05:07:08;;;;;;;1.33;0.82;;;21.40;60.20;;;;;;4973664;28;91744;-83
2022/09/27 05:09:34;;;;;;;1.67;0.80;;;21.40;60.00;;;;;;4979362;28;87177;-83
2022/09/27 05:12:00;;;;;;;1.35;1.00;;;21.30;60.00;;;;;;4979331;28;87415;-83
2022/09/27 05:14:25;;;;;;;1.45;0.90;;;21.40;60.20;;;;;;4974318;28;90344;-83
2022/09/27 05:16:52;;;;;;;1.75;1.10;;;21.40;60.30;;;;;;4964518;28;90115;-83
2022/09/27 05:19:18;;;;;;;1.52;1.10;;;21.40;60.20;;;;;;4991813;28;89776;-83
2022/09/27 05:21:43;;;;;;;1.98;0.95;;;21.40;60.00;;;;;;4967279;28;89035;-84
2022/09/27 05:24:09;;;;;;;1.40;1.00;;;21.40;60.00;;;;;;4965902;28;90579;-84
2022/09/27 05:26:36;;;;;;;1.38;0.80;;;21.40;59.90;;;;;;4967323;28;90461;-84
2022/09/27 05:29:02;;;;;;;1.15;0.80;;;21.40;59.90;;;;;;4974681;28;88044;-84
2022/09/27 05:31:28;;;;;;;1.40;0.80;;;21.40;60.00;;;;;;4958922;28;90635;-84
2022/09/27 05:33:54;;;;;;;1.30;0.98;;;21.40;59.90;;;;;;4990417;28;91730;-84
2022/09/27 05:36:22;;;;;;;1.33;0.80;;;21.40;59.80;;;;;;4974135;28;88229;-84
2022/09/27 05:38:48;;;;;;;1.20;0.90;;;21.30;59.90;;;;;;4975017;28;87531;-84
2022/09/27 05:41:13;;;;;;;1.13;0.80;;;21.40;60.00;;;;;;4975785;28;87087;-84
2022/09/27 05:43:40;;;;;;;1.67;0.95;;;21.40;60.00;;;;;;4974895;28;88891;-84
2022/09/27 05:46:05;;;;;;;0.65;0.60;;;21.30;60.20;;;;;;4977381;28;88363;-84
2022/09/27 05:48:31;;;;;;;1.00;0.90;;;21.30;59.90;;;;;;4976462;28;87313;-84
2022/09/27 05:50:57;;;;;;;0.90;0.70;;;21.40;60.00;;;;;;4978582;28;87500;-84
2022/09/27 05:53:22;;;;;;;1.48;0.80;;;21.30;59.90;;;;;;4977051;28;89284;-84
2022/09/27 05:55:48;;;;;;;1.52;0.90;;;21.30;59.90;;;;;;4978608;28;88902;-84
2022/09/27 05:58:15;;;;;;;1.48;0.90;;;21.30;59.80;;;;;;4978561;28;87525;-82
2022/09/27 06:00:42;;;;;;;1.88;0.93;;;21.30;59.90;;;;;;4982502;28;87496;-82
2022/09/27 06:03:09;;;;;;;1.10;0.82;;;21.20;58.90;;;;;;4984809;28;90442;-83
2022/09/27 06:05:37;;;;;;;4.38;1.05;;;21.20;57.20;;;;;;4979141;28;88885;-83
2022/09/27 06:08:05;;;;;;;4.32;0.80;;;21.20;59.10;;;;;;4978598;28;87829;-83
2022/09/27 06:10:32;;;;;;;1.48;0.82;;;21.10;58.00;;;;;;4976364;28;89814;-83
2022/09/27 06:13:02;;;;;;;4.80;1.45;;;21.10;58.60;;;;;;4991086;28;91016;-84
2022/09/27 06:15:28;;;;;;;11.07;2.35;;;21.00;59.50;;;;;;4969879;28;88196;-83
2022/09/27 06:17:54;;;;;;;7.07;2.30;;;21.00;59.60;;;;;;4972254;28;88351;-82
2022/09/27 06:20:20;;;;;;;8.88;2.30;;;21.10;59.70;;;;;;4972952;28;88000;-84
2022/09/27 06:22:46;;;;;;;10.63;2.60;;;21.10;59.40;;;;;;4970577;28;88261;-84
2022/09/27 06:25:12;;;;;;;10.18;2.60;;;21.20;59.40;;;;;;4973684;28;87433;-85
2022/09/27 06:27:38;;;;;;;7.97;2.35;;;21.20;59.60;;;;;;4953576;28;87275;-84
2022/09/27 06:30:04;;;;;;;13.05;3.55;;;21.30;60.20;;;;;;4972750;28;87743;-85
2022/09/27 06:32:30;;;;;;;10.98;2.47;;;21.20;59.00;;;;;;4971366;28;88176;-84
2022/09/27 06:34:56;;;;;;;8.40;2.03;;;21.10;56.80;;;;;;4953150;28;91436;-84
2022/09/27 06:37:25;;;;;;;6.93;1.70;;;21.00;54.90;;;;;;4955209;28;87398;-84
2022/09/27 06:39:52;;;;;;;5.45;1.70;;;20.90;54.40;;;;;;4955470;28;90107;-84
2022/09/27 06:42:18;;;;;;;6.28;1.77;;;20.80;54.00;;;;;;4970031;28;90267;-84
2022/09/27 06:44:46;;;;;;;9.90;1.58;;;20.80;53.70;;;;;;4972163;28;91119;-84
2022/09/27 06:47:12;;;;;;;6.40;1.50;;;20.70;53.50;;;;;;4954860;28;87458;-83
2022/09/27 06:49:38;;;;;;;5.85;1.33;;;20.70;53.40;;;;;;4970886;28;87978;-84
2022/09/27 06:52:05;;;;;;;5.78;1.55;;;20.70;53.00;;;;;;4971041;28;87843;-84
2022/09/27 06:54:30;;;;;;;4.85;1.40;;;20.70;53.00;;;;;;4971455;28;87487;-84
2022/09/27 06:56:56;;;;;;;2.70;1.08;;;20.70;52.80;;;;;;4971112;28;86923;-84
2022/09/27 07:02:05;;;;;;;3.17;1.05;;;20.70;52.30;;;;;;4927715;28;88376;-84
2022/09/27 07:04:31;;;;;;;4.93;0.88;;;20.70;52.20;;;;;;4928561;28;87755;-84
2022/09/27 07:06:58;;;;;;;5.00;1.10;;;20.70;52.80;;;;;;4927885;28;88298;-84
2022/09/27 07:09:23;;;;;;;4.30;1.00;;;20.80;53.40;;;;;;4928121;28;87348;-84
2022/09/27 07:11:49;;;;;;;39.13;6.63;;;20.80;54.30;;;;;;4947155;28;87447;-84
2022/09/27 07:14:16;;;;;;;11.45;3.10;;;20.80;53.30;;;;;;4936106;28;87796;-84
2022/09/27 07:16:42;;;;;;;7.50;2.10;;;20.90;54.70;;;;;;4946372;28;87427;-84
2022/09/27 07:19:10;;;;;;;10.25;2.30;;;21.00;55.30;;;;;;4948248;28;87512;-84
2022/09/27 07:21:36;;;;;;;10.55;2.78;;;21.00;55.10;;;;;;4948348;28;87663;-84
2022/09/27 07:24:01;;;;;;;12.25;3.28;;;21.10;55.30;;;;;;4948371;28;87757;-84
2022/09/27 07:26:27;;;;;;;18.73;3.47;;;21.10;55.30;;;;;;4958008;28;87556;-83
2022/09/27 07:28:53;;;;;;;14.15;3.20;;;21.10;55.10;;;;;;4940709;28;90491;-84
2022/09/27 07:31:19;;;;;;;11.15;2.85;;;21.10;55.30;;;;;;4985333;28;92347;-84
2022/09/27 07:33:44;;;;;;;17.98;3.72;;;21.10;55.50;;;;;;4965924;28;90922;-82
2022/09/27 07:36:11;;;;;;;18.55;4.38;;;21.10;55.40;;;;;;4966792;28;87024;-84
2022/09/27 07:38:37;;;;;;;18.83;4.57;;;21.10;55.20;;;;;;4967787;28;87301;-83
2022/09/27 07:41:12;;;;;;;17.02;2.83;;;21.20;55.40;;;;;;4966694;28;87743;-83
2022/09/27 07:43:37;;;;;;;14.90;3.95;;;21.10;55.60;;;;;;4873859;28;97820;-84
2022/09/27 07:46:03;;;;;;;17.45;3.85;;;21.10;55.70;;;;;;4947663;28;87075;-81
2022/09/27 07:48:29;;;;;;;24.85;4.80;;;21.20;55.90;;;;;;4959351;28;87372;-83
2022/09/27 07:50:54;;;;;;;17.77;4.30;;;21.20;55.90;;;;;;4963953;28;88594;-83
2022/09/27 07:53:20;;;;;;;20.92;5.15;;;21.20;55.80;;;;;;4967526;28;87525;-82
2022/09/27 07:55:52;;;;;;;20.63;4.57;;;21.20;55.80;;;;;;4967409;28;88432;-83
2022/09/27 07:58:19;;;;;;;18.13;4.07;;;21.20;56.10;;;;;;4966225;28;91089;-83
2022/09/27 08:00:45;;;;;;;27.63;5.60;;;21.20;56.20;;;;;;4967662;28;88064;-83
2022/09/27 08:03:15;;;;;;;14.13;4.18;;;21.20;56.40;;;;;;4944770;28;91462;-84
2022/09/27 08:05:43;;;;;;;18.05;4.35;;;21.20;56.50;;;;;;4957983;28;86966;-84
2022/09/27 08:08:08;;;;;;;20.58;4.95;;;21.20;56.70;;;;;;4960127;28;91230;-83
2022/09/27 08:10:34;;;;;;;16.63;4.72;;;21.10;56.90;;;;;;4973025;28;91524;-82
2022/09/27 08:13:02;;;;;;;23.20;4.50;;;21.20;57.30;;;;;;4957971;28;90392;-83
2022/09/27 08:15:28;;;;;;;17.80;4.82;;;21.20;57.30;;;;;;4960482;28;86978;-82
2022/09/27 08:17:54;;;;;;;19.60;4.90;;;21.20;57.50;;;;;;4960105;28;86888;-82
2022/09/27 08:20:20;;;;;;;22.30;6.05;;;21.20;57.60;;;;;;4961034;28;88080;-82
2022/09/27 08:22:45;;;;;;;22.42;6.82;;;21.20;58.10;;;;;;4960760;28;88753;-82
2022/09/27 08:25:11;;;;;;;19.92;6.72;;;21.20;58.70;;;;;;4959568;28;87146;-83
2022/09/27 08:27:36;;;;;;;28.35;7.28;;;21.20;58.90;;;;;;4959574;28;87056;-82
2022/09/27 08:30:03;;;;;;;27.00;7.20;;;21.20;58.90;;;;;;4960194;28;87545;-83
2022/09/27 08:32:29;;;;;;;27.75;7.55;;;21.20;59.10;;;;;;4960758;28;88215;-83
2022/09/27 08:34:55;;;;;;;31.17;8.15;;;21.10;59.40;;;;;;4965397;28;87074;-83
2022/09/27 08:37:21;;;;;;;25.90;7.35;;;21.10;59.70;;;;;;4959130;28;86613;-83
2022/09/27 08:39:47;;;;;;;30.00;8.60;;;21.20;59.70;;;;;;4959188;28;88615;-83
2022/09/27 08:42:27;;;;;;;32.53;8.57;;;21.20;60.20;;;;;;4953385;28;90606;-83
2022/09/27 08:45:08;;;;;;;30.25;8.23;;;21.20;60.80;;;;;;4969681;28;87886;-83
2022/09/27 08:47:43;;;;;;;39.50;8.82;;;21.20;60.70;;;;;;4960171;28;87817;-83
2022/09/27 08:50:18;;;;;;;26.42;8.23;;;21.10;60.60;;;;;;4959286;28;91908;-83
2022/09/27 08:53:01;;;;;;;33.95;8.75;;;21.10;60.80;;;;;;4958678;28;88856;-83
2022/09/27 08:55:58;;;;;;;28.42;9.05;;;21.10;61.10;;;;;;4959077;28;86976;-85
2022/09/27 08:58:24;;;;;;;29.88;10.52;;;21.10;61.70;;;;;;4959854;28;86987;-84
2022/09/27 09:00:54;;;;;;;32.42;9.55;;;21.20;61.70;;;;;;4958887;28;87958;-85
2022/09/27 09:03:21;;;;;;;;;;;21.20;61.80;;;;;;4960576;28;88279;-82
2022/09/27 09:06:00;;;;;;;41.25;10.27;;;21.10;61.50;;;;;;4958608;28;87376;-84
2022/09/27 09:08:42;;;;;;;25.80;9.30;;;21.20;61.80;;;;;;4959535;28;87093;-85
2022/09/27 09:14:51;;;;;;;29.13;7.72;;;21.20;61.80;;;;;;4970465;28;91295;-84
2022/09/27 09:17:54;;;;;;;33.60;8.43;;;21.20;60.30;;;;;;4978171;28;86833;-82
2022/09/27 09:20:41;;;;;;;30.75;9.20;;;21.20;61.30;;;;;;4951636;28;93214;-82
2022/09/27 09:23:28;;;;;;;39.47;8.40;;;21.20;61.50;;;;;;4976547;28;88396;-82
2022/09/27 09:26:04;;;;;;;31.55;9.15;;;21.20;60.80;;;;;;4951076;28;91243;-83
2022/09/27 09:28:36;;;;;;;28.50;7.95;;;21.10;61.10;;;;;;4959075;28;87654;-82
2022/09/27 09:31:32;;;;;;;24.23;8.20;;;21.20;61.10;;;;;;4959404;28;87194;-83
2022/09/27 09:34:04;;;;;;;27.50;8.30;;;21.20;60.90;;;;;;4967968;28;88542;-82
2022/09/27 09:36:53;;;;;;;23.77;8.23;;;21.20;60.90;;;;;;4961215;28;89845;-83
2022/09/27 09:39:34;;;;;;;34.70;8.03;;;21.20;60.80;;;;;;4976053;28;88202;-85
2022/09/27 09:42:09;;;;;;;23.83;7.32;;;21.10;60.90;;;;;;4978346;28;87357;-83
2022/09/27 09:44:46;;;;;;;22.92;7.40;;;21.10;61.10;;;;;;4979674;28;88310;-85
2022/09/27 09:47:22;;;;;;;27.35;7.38;;;21.20;61.30;;;;;;4959088;28;95192;-84
2022/09/27 09:49:54;;;;;;;23.42;7.80;;;21.20;61.20;;;;;;4958998;28;87126;-85
2022/09/27 09:52:39;;;;;;;24.80;6.63;;;21.20;61.10;;;;;;4971472;28;90848;-85
2022/09/27 09:55:27;;;;;;;16.27;6.93;;;21.20;61.20;;;;;;4939427;28;91030;-86
2022/09/27 09:58:32;;;;;;;19.60;7.63;;;21.10;61.30;;;;;;4958929;28;87885;-85
2022/09/27 10:01:09;;;;;;;24.55;7.65;;;21.10;62.10;;;;;;4888203;28;87206;-84
2022/09/27 10:03:34;;;;;;;20.80;7.03;;;21.10;62.30;;;;;;4900935;28;87310;-86
2022/09/27 10:06:00;;;;;;;22.38;7.25;;;21.10;62.50;;;;;;4907819;28;89362;-85
2022/09/27 10:08:26;;;;;;;21.98;7.03;;;21.10;62.60;;;;;;4907090;28;89720;-85
2022/09/27 10:10:51;;;;;;;19.60;7.22;;;21.10;62.70;;;;;;4908316;28;87540;-84
2022/09/27 10:13:21;;;;;;;28.45;7.28;;;21.10;62.90;;;;;;4904944;28;87076;-84
2022/09/27 10:15:58;;;;;;;19.60;6.90;;;21.10;63.50;;;;;;4896182;28;87565;-84
2022/09/27 10:18:26;;;;;;;19.60;6.97;;;21.10;62.80;;;;;;4892548;28;88093;-86
2022/09/27 10:20:57;;;;;;;22.60;7.13;;;21.10;62.70;;;;;;4890130;28;87038;-85
2022/09/27 10:23:24;;;;;;;20.88;7.18;;;21.10;63.00;;;;;;4908247;28;89247;-85
2022/09/27 10:26:04;;;;;;;21.27;6.97;;;21.10;63.10;;;;;;4905659;28;90621;-85
2022/09/27 10:28:42;;;;;;;20.02;6.18;;;21.20;62.70;;;;;;4906265;28;88196;-86
2022/09/27 10:31:16;;;;;;;20.02;6.78;;;21.20;62.80;;;;;;4905485;28;88456;-84
2022/09/27 10:34:01;;;;;;;18.40;5.82;;;21.20;62.50;;;;;;4905787;28;87052;-84
2022/09/27 10:36:29;;;;;;;15.57;5.72;;;21.20;62.70;;;;;;4905495;28;91626;-84
2022/09/27 10:38:57;;;;;;;21.60;6.65;;;21.20;62.40;;;;;;4940155;28;88243;-83
2022/09/27 10:41:26;;;;;;;15.27;6.30;;;21.20;62.50;;;;;;4967993;28;87052;-82
2022/09/27 10:43:52;;;;;;;17.58;5.93;;;21.20;62.40;;;;;;4966749;28;87198;-82
2022/09/27 10:46:26;;;;;;;16.42;6.43;;;21.10;62.30;;;;;;4947956;28;91915;-82
2022/09/27 10:49:27;;;;;;;13.20;4.68;;;21.20;62.60;;;;;;4953291;28;88430;-82
2022/09/27 10:51:58;;;;;;;12.27;3.40;;;21.10;63.00;;;;;;4923868;28;87233;-85
2022/09/27 10:54:31;;;;;;;7.35;3.45;;;21.00;62.90;;;;;;4917689;28;89811;-82
2022/09/27 10:57:05;;;;;;;9.00;3.15;;;20.90;62.90;;;;;;4932976;28;88881;-82
2022/09/27 10:59:35;;;;;;;6.60;2.35;;;20.90;60.10;;;;;;4918999;28;87995;-84
2022/09/27 11:02:01;;;;;;;11.30;4.10;;;20.80;59.00;;;;;;4952867;28;87534;-85
2022/09/27 11:04:31;;;;;;;10.85;4.10;;;20.80;61.60;;;;;;4929595;28;88463;-85
2022/09/27 11:07:18;;;;;;;17.17;4.22;;;20.90;62.20;;;;;;4938421;28;88539;-84
2022/09/27 11:10:01;;;;;;;15.13;4.18;;;21.00;62.60;;;;;;4939287;28;88402;-84
2022/09/27 11:12:29;;;;;;;15.63;4.38;;;21.00;62.60;;;;;;4938413;28;87014;-83
2022/09/27 11:15:02;;;;;;;15.77;3.67;;;21.10;62.40;;;;;;4973111;28;87147;-85
2022/09/27 11:17:50;;;;;;;10.88;3.47;;;21.20;65.10;;;;;;4973653;28;91697;-83
2022/09/27 11:20:38;;;;;;;8.90;3.35;;;21.00;62.60;;;;;;4983675;28;94676;-82
2022/09/27 11:23:11;;;;;;;12.13;3.45;;;21.00;63.00;;;;;;4976264;28;88568;-80
2022/09/27 11:26:02;;;;;;;9.55;2.92;;;20.90;63.20;;;;;;4974211;28;87093;-82
2022/09/27 11:28:56;;;;;;;6.97;2.80;;;20.90;60.70;;;;;;4976464;28;88243;-82
2022/09/27 11:31:48;;;;;;;6.97;2.50;;;20.80;61.70;;;;;;4978246;28;87685;-86
2022/09/27 11:34:47;;;;;;;10.73;3.97;;;20.70;62.00;;;;;;4960509;28;87560;-85
2022/09/27 11:37:42;;;;;;;16.92;4.43;;;20.70;63.40;;;;;;4978368;28;86915;-83
2022/09/27 11:40:27;;;;;;;16.33;4.28;;;20.70;63.00;;;;;;4976859;28;88785;-83
2022/09/27 11:43:30;;;;;;;13.77;4.72;;;20.70;62.60;;;;;;4857163;29;88439;-85
2022/09/27 11:45:58;;;;;;;16.85;5.13;;;20.80;63.50;;;;;;4835728;29;87781;-86
2022/09/27 11:48:48;;;;;;;19.48;4.80;;;20.80;63.60;;;;;;4854304;29;87621;-84
2022/09/27 11:51:27;;;;;;;15.80;4.38;;;20.80;68.30;;;;;;4860807;28;91916;-85
2022/09/27 11:54:05;;;;;;;16.73;4.70;;;20.80;68.30;;;;;;4861212;29;89468;-84
2022/09/27 11:57:03;;;;;;;8.38;4.38;;;20.80;71.00;;;;;;4862082;29;87541;-84
2022/09/27 11:59:55;;;;;;;13.80;4.10;;;20.80;71.50;;;;;;4878766;28;91900;-82
2022/09/27 12:02:29;;;;;;;8.98;4.13;;;20.80;68.30;;;;;;4879359;28;92245;-82
2022/09/27 12:05:13;;;;;;;12.30;4.40;;;20.70;68.10;;;;;;4878964;28;88289;-82
2022/09/27 12:07:48;;;;;;;14.43;3.92;;;20.70;67.80;;;;;;4877956;28;87472;-84
2022/09/27 12:10:16;;;;;;;11.70;4.18;;;20.70;67.50;;;;;;4879006;28;87412;-84
2022/09/27 12:12:45;;;;;;;15.55;4.28;;;20.60;68.00;;;;;;4880256;28;87717;-86
2022/09/27 12:15:24;;;;;;;9.25;3.30;;;20.70;67.80;;;;;;4879144;28;88472;-86
2022/09/27 12:17:55;;;;;;;9.18;3.90;;;20.70;66.90;;;;;;4879956;28;88313;-87
2022/09/27 12:20:32;;;;;;;14.93;4.65;;;20.60;67.30;;;;;;4911364;28;90899;-86
2022/09/27 12:23:21;;;;;;;8.05;3.90;;;20.70;67.20;;;;;;4979074;28;88385;-88
2022/09/27 12:25:53;;;;;;;7.18;3.25;;;20.60;67.00;;;;;;4968242;28;90500;-88
2022/09/27 12:28:32;;;;;;;9.07;3.70;;;20.60;66.70;;;;;;4980144;28;87634;-86
2022/09/27 12:31:07;;;;;;;7.07;3.30;;;20.60;66.90;;;;;;4977837;28;87701;-87
2022/09/27 12:33:41;;;;;;;15.27;4.32;;;20.60;66.50;;;;;;4979522;28;88009;-86
2022/09/27 12:36:15;;;;;;;6.68;3.30;;;20.60;65.70;;;;;;4979025;28;87327;-87
2022/09/27 12:38:50;;;;;;;10.30;3.78;;;20.70;66.20;;;;;;4980138;28;87573;-89
2022/09/27 12:41:19;;;;;;;10.40;3.20;;;20.60;66.00;;;;;;4979220;28;91549;-89
2022/09/27 12:43:49;;;;;;;7.55;3.30;;;20.60;65.90;;;;;;4977150;28;89677;-89
2022/09/27 12:46:29;;;;;;;14.00;3.47;;;20.50;66.10;;;;;;4976990;28;88340;-89
2022/09/27 12:49:37;;;;;;;10.27;3.40;;;20.60;65.80;;;;;;4975831;28;87621;-87
2022/09/27 12:52:07;;;;;;;8.77;3.30;;;20.50;66.00;;;;;;4925373;28;87577;-90
2022/09/27 12:55:11;;;;;;;8.10;3.50;;;20.50;66.10;;;;;;4933763;28;91572;-90
2022/09/27 12:58:12;;;;;;;11.43;3.67;;;20.50;66.00;;;;;;4933707;28;87326;-89
2022/09/27 13:00:52;;;;;;;11.70;3.10;;;20.50;66.10;;;;;;4895143;28;87019;-89
2022/09/27 13:03:29;;;;;;;10.63;3.17;;;20.50;66.20;;;;;;4894670;28;86860;-87
2022/09/27 13:06:10;;;;;;;10.73;3.30;;;20.50;66.30;;;;;;4895045;28;88193;-87
2022/09/27 13:08:48;;;;;;;8.90;3.38;;;20.50;66.30;;;;;;4879949;28;91276;-89
2022/09/27 13:11:35;;;;;;;8.02;3.33;;;20.60;66.10;;;;;;4895292;28;87928;-91
2022/09/27 13:14:03;;;;;;;6.78;2.90;;;20.60;65.90;;;;;;4893073;28;90489;-86
2022/09/27 13:16:28;;;;;;;12.15;3.80;;;20.60;65.40;;;;;;4860805;28;91304;-86
2022/09/27 13:19:00;;;;;;;13.48;3.67;;;20.50;63.30;;;;;;4877496;28;87918;-87